createdAt,value
2023-02-21T03:58:46.560Z,1013.03
2023-02-21T03:59:43.046Z,1013.06
2023-02-21T04:00:43.923Z,1013.04
2023-02-21T04:01:43.263Z,1013.04
2023-02-21T04:02:43.221Z,1013.06
2023-02-21T04:03:44.433Z,1013.09
2023-02-21T04:04:44.441Z,1013.05
2023-02-21T04:05:44.575Z,1013.06
2023-02-21T04:06:44.675Z,1013.05
2023-02-21T04:07:44.923Z,1013.14
2023-02-21T04:08:44.161Z,1013.15
2023-02-21T04:09:44.192Z,1013.16
2023-02-21T04:10:51.964Z,1013.07
2023-02-21T04:11:45.618Z,1013.10
2023-02-21T04:12:45.021Z,1013.10
2023-02-21T04:13:44.785Z,1013.12
2023-02-21T04:14:45.789Z,1013.13
2023-02-21T04:15:45.401Z,1013.12
2023-02-21T04:16:46.051Z,1013.12
2023-02-21T04:17:45.357Z,1013.17
2023-02-21T04:18:45.893Z,1013.17
2023-02-21T04:19:46.419Z,1013.15
2023-02-21T04:20:45.882Z,1013.16
2023-02-21T04:21:47.131Z,1013.15
2023-02-21T04:22:51.892Z,1013.16
2023-02-21T04:23:47.031Z,1013.13
2023-02-21T04:24:47.717Z,1013.08
2023-02-21T04:25:47.248Z,1013.07
2023-02-21T04:26:47.804Z,1013.08
2023-02-21T04:27:47.768Z,1013.11
2023-02-21T04:28:50.729Z,1013.05
2023-02-21T04:29:48.000Z,1013.12
2023-02-21T04:30:47.454Z,1013.09
2023-02-21T04:31:48.014Z,1013.10
2023-02-21T04:32:49.166Z,1013.10
2023-02-21T04:33:47.271Z,1013.08
2023-02-21T04:34:47.494Z,1013.05
2023-02-21T04:35:48.495Z,1013.05
2023-02-21T04:36:49.143Z,1013.02
2023-02-21T04:37:48.134Z,1013.05
2023-02-21T04:38:48.429Z,1013.09
2023-02-21T04:39:49.214Z,1013.04
2023-02-21T04:40:48.638Z,1013.05
2023-02-21T04:41:49.316Z,1013.04
2023-02-21T04:42:49.415Z,1013.03
2023-02-21T04:43:49.510Z,1013.03
2023-02-21T04:44:59.817Z,1013.05
2023-02-21T04:45:49.828Z,1013.01
2023-02-21T04:46:49.904Z,1013.04
2023-02-21T04:47:49.628Z,1013.02
2023-02-21T04:48:49.328Z,1012.99
2023-02-21T04:49:49.879Z,1013.05
2023-02-21T04:50:49.640Z,1013.05
2023-02-21T04:51:49.688Z,1013.06
2023-02-21T04:52:50.078Z,1013.03
2023-02-21T04:53:50.067Z,1013.06
2023-02-21T04:54:51.153Z,1013.02
2023-02-21T04:55:50.188Z,1013.06
2023-02-21T04:56:51.297Z,1013.11
2023-02-21T04:57:50.631Z,1013.05
2023-02-21T04:58:50.828Z,1013.10
2023-02-21T04:59:51.730Z,1013.10
2023-02-21T05:00:51.076Z,1012.98
2023-02-21T05:01:51.970Z,1012.98
2023-02-21T05:02:51.271Z,1012.99
2023-02-21T05:03:52.321Z,1013.05
2023-02-21T05:04:52.399Z,1012.94
2023-02-21T05:05:52.525Z,1012.95
2023-02-21T05:06:52.013Z,1012.94
2023-02-21T05:07:52.848Z,1012.94
2023-02-21T05:08:53.147Z,1012.98
2023-02-21T05:09:52.366Z,1012.95
2023-02-21T05:10:53.722Z,1012.95
2023-02-21T05:11:52.575Z,1012.87
2023-02-21T05:12:53.997Z,1012.93
2023-02-21T05:13:52.868Z,1012.89
2023-02-21T05:14:53.175Z,1012.88
2023-02-21T05:15:53.942Z,1012.88
2023-02-21T05:16:53.365Z,1012.88
2023-02-21T05:17:54.222Z,1012.86
2023-02-21T05:18:53.823Z,1012.87
2023-02-21T05:19:53.942Z,1012.92
2023-02-21T05:23:13.764Z,1012.93
2023-02-21T05:24:11.147Z,1012.91
2023-02-21T05:25:11.169Z,1012.84
2023-02-21T05:26:12.213Z,1012.90
2023-02-21T05:27:12.315Z,1012.91
2023-02-21T05:28:16.289Z,1012.89
2023-02-21T05:29:12.338Z,1012.86
2023-02-21T05:30:12.429Z,1012.87
2023-02-21T05:31:12.245Z,1012.86
2023-02-21T05:32:12.156Z,1012.84
2023-02-21T05:33:12.447Z,1012.81
2023-02-21T05:34:11.836Z,1012.80
2023-02-21T05:35:12.048Z,1012.75
2023-02-21T05:36:13.511Z,1012.82
2023-02-21T05:37:13.282Z,1012.74
2023-02-21T05:38:12.180Z,1012.74
2023-02-21T05:39:12.300Z,1012.70
2023-02-21T05:40:13.666Z,1012.71
2023-02-21T05:41:13.058Z,1012.70
2023-02-21T05:42:13.776Z,1012.70
2023-02-21T05:43:12.749Z,1012.66
2023-02-21T05:44:13.354Z,1012.74
2023-02-21T05:45:13.948Z,1012.71
2023-02-21T05:46:13.385Z,1012.73
2023-02-21T05:47:13.264Z,1012.70
2023-02-21T05:48:13.385Z,1012.77
2023-02-21T05:49:14.468Z,1012.67
2023-02-21T05:50:13.775Z,1012.73
2023-02-21T05:51:14.157Z,1012.76
2023-02-21T05:52:14.736Z,1012.74
2023-02-21T05:53:15.225Z,1012.76
2023-02-21T05:54:14.200Z,1012.76
2023-02-21T05:55:14.757Z,1012.77
2023-02-21T05:56:15.622Z,1012.72
2023-02-21T05:57:14.854Z,1012.77
2023-02-21T05:58:14.864Z,1012.73
2023-02-21T05:59:15.175Z,1012.73
2023-02-21T06:00:15.283Z,1012.71
2023-02-21T06:01:16.288Z,1012.75
2023-02-21T06:02:15.334Z,1012.77
2023-02-21T06:03:16.467Z,1012.75
2023-02-21T06:04:16.540Z,1012.73
2023-02-21T06:05:16.740Z,1012.80
2023-02-21T06:06:16.679Z,1012.73
2023-02-21T06:07:16.858Z,1012.72
2023-02-21T06:08:16.970Z,1012.80
2023-02-21T06:09:16.291Z,1012.79
2023-02-21T06:10:16.792Z,1012.74
2023-02-21T06:11:16.954Z,1012.77
2023-02-21T06:12:17.706Z,1012.79
2023-02-21T06:13:17.876Z,1012.76
2023-02-21T06:14:18.837Z,1012.74
2023-02-21T06:15:17.947Z,1012.74
2023-02-21T06:16:18.570Z,1012.75
2023-02-21T06:17:17.226Z,1012.72
2023-02-21T06:18:18.267Z,1012.75
2023-02-21T06:19:18.455Z,1012.82
2023-02-21T06:20:18.485Z,1012.77
2023-02-21T06:21:18.016Z,1012.84
2023-02-21T06:22:17.796Z,1012.77
2023-02-21T06:23:18.845Z,1012.71
2023-02-21T06:24:18.225Z,1012.75
2023-02-21T06:25:19.165Z,1012.72
2023-02-21T06:26:18.422Z,1012.74
2023-02-21T06:27:18.524Z,1012.71
2023-02-21T06:28:18.536Z,1012.70
2023-02-21T06:29:18.837Z,1012.67
2023-02-21T06:30:19.138Z,1012.78
2023-02-21T06:31:19.028Z,1012.70
2023-02-21T06:32:19.659Z,1012.74
2023-02-21T06:33:19.307Z,1012.77
2023-02-21T06:34:19.403Z,1012.77
2023-02-21T06:35:19.735Z,1012.74
2023-02-21T06:36:19.629Z,1012.84
2023-02-21T06:37:19.760Z,1012.81
2023-02-21T06:38:20.168Z,1012.88
2023-02-21T06:39:20.241Z,1012.85
2023-02-21T06:40:20.251Z,1012.95
2023-02-21T06:41:20.511Z,1012.89
2023-02-21T06:42:20.924Z,1012.92
2023-02-21T06:44:36.050Z,1012.95
2023-02-21T06:45:35.867Z,1012.95
2023-02-21T06:46:36.229Z,1012.90
2023-02-21T06:47:36.213Z,1012.96
2023-02-21T06:48:36.287Z,1012.95
2023-02-21T06:49:36.824Z,1012.89
2023-02-21T06:50:36.820Z,1012.88
2023-02-21T06:51:37.071Z,1012.90
2023-02-21T06:52:36.937Z,1012.90
2023-02-21T06:53:37.371Z,1012.88
2023-02-21T06:54:37.957Z,1012.92
2023-02-21T06:55:37.908Z,1012.95
2023-02-21T06:56:37.506Z,1012.97
2023-02-21T06:57:38.607Z,1012.92
2023-02-21T06:58:37.827Z,1012.93
2023-02-21T06:59:38.099Z,1012.93
2023-02-21T07:00:38.211Z,1012.93
2023-02-21T07:01:38.541Z,1012.97
2023-02-21T07:02:38.947Z,1013.01
2023-02-21T07:03:38.632Z,1012.96
2023-02-21T07:04:38.841Z,1012.87
2023-02-21T07:05:39.404Z,1012.97
2023-02-21T07:06:39.712Z,1012.96
2023-02-21T07:07:39.450Z,1012.94
2023-02-21T07:08:39.337Z,1012.92
2023-02-21T07:09:39.362Z,1012.95
2023-02-21T07:10:39.596Z,1013.01
2023-02-21T07:11:39.961Z,1012.98
2023-02-21T07:12:39.803Z,1013.02
2023-02-21T07:13:39.947Z,1013.02
2023-02-21T07:14:40.269Z,1013.02
2023-02-21T07:15:40.221Z,1013.02
2023-02-21T07:16:40.267Z,1013.06
2023-02-21T07:17:44.483Z,1013.06
2023-02-21T07:18:40.793Z,1013.05
2023-02-21T07:19:41.115Z,1013.06
2023-02-21T07:20:46.537Z,1013.06
2023-02-21T07:21:43.485Z,1013.08
2023-02-21T07:22:41.178Z,1013.10
2023-02-21T07:23:41.264Z,1013.14
2023-02-21T07:24:42.340Z,1013.17
2023-02-21T07:25:42.401Z,1013.14
2023-02-21T07:26:41.798Z,1013.19
2023-02-21T07:27:42.341Z,1013.17
2023-02-21T07:28:42.191Z,1013.22
2023-02-21T07:29:42.365Z,1013.20
2023-02-21T07:30:45.077Z,1013.20
2023-02-21T07:31:42.637Z,1013.17
2023-02-21T07:32:42.502Z,1013.20
2023-02-21T07:33:42.716Z,1013.17
2023-02-21T07:34:43.722Z,1013.18
2023-02-21T07:35:42.828Z,1013.23
2023-02-21T07:36:43.155Z,1013.26
2023-02-21T07:37:43.595Z,1013.18
2023-02-21T07:38:43.564Z,1013.25
2023-02-21T07:39:43.605Z,1013.19
2023-02-21T07:40:43.502Z,1013.24
2023-02-21T07:41:43.688Z,1013.24
2023-02-21T07:42:44.145Z,1013.33
2023-02-21T07:43:44.109Z,1013.28
2023-02-21T07:44:44.167Z,1013.35
2023-02-21T07:45:44.531Z,1013.32
2023-02-21T07:46:44.480Z,1013.32
2023-02-21T07:47:46.267Z,1013.37
2023-02-21T07:48:44.690Z,1013.38
2023-02-21T07:49:44.906Z,1013.39
2023-02-21T07:50:44.993Z,1013.40
2023-02-21T07:51:45.115Z,1013.41
2023-02-21T07:52:45.660Z,1013.43
2023-02-21T07:53:45.737Z,1013.46
2023-02-21T07:54:46.520Z,1013.43
2023-02-21T07:55:45.839Z,1013.41
2023-02-21T07:56:45.943Z,1013.41
2023-02-21T07:57:46.300Z,1013.43
2023-02-21T07:58:50.276Z,1013.40
2023-02-21T07:59:46.492Z,1013.39
2023-02-21T08:00:46.490Z,1013.41
2023-02-21T08:01:47.060Z,1013.40
2023-02-21T08:02:46.628Z,1013.41
2023-02-21T08:03:46.927Z,1013.41
2023-02-21T08:07:03.213Z,1013.38
2023-02-21T08:08:03.432Z,1013.44
2023-02-21T08:09:04.730Z,1013.46
2023-02-21T08:10:03.775Z,1013.42
2023-02-21T08:11:03.716Z,1013.42
2023-02-21T08:12:04.067Z,1013.51
2023-02-21T08:13:04.093Z,1013.48
2023-02-21T08:14:04.189Z,1013.50
2023-02-21T08:15:04.395Z,1013.53
2023-02-21T08:16:04.457Z,1013.53
2023-02-21T08:17:04.600Z,1013.52
2023-02-21T08:18:04.904Z,1013.50
2023-02-21T08:19:04.907Z,1013.53
2023-02-21T08:20:04.913Z,1013.57
2023-02-21T08:21:05.067Z,1013.56
2023-02-21T08:22:05.252Z,1013.60
2023-02-21T08:23:06.193Z,1013.66
2023-02-21T08:24:05.743Z,1013.60
2023-02-21T08:25:05.585Z,1013.63
2023-02-21T08:26:05.705Z,1013.65
2023-02-21T08:27:06.144Z,1013.67
2023-02-21T08:28:06.231Z,1013.68
2023-02-21T08:29:06.392Z,1013.64
2023-02-21T08:30:06.514Z,1013.70
2023-02-21T08:31:07.192Z,1013.66
2023-02-21T08:32:07.181Z,1013.66
2023-02-21T08:33:07.531Z,1013.65
2023-02-21T08:34:07.897Z,1013.65
2023-02-21T08:35:07.940Z,1013.63
2023-02-21T08:36:07.383Z,1013.70
2023-02-21T08:37:07.729Z,1013.66
2023-02-21T08:38:08.006Z,1013.69
2023-02-21T08:39:08.010Z,1013.68
2023-02-21T08:40:07.920Z,1013.67
2023-02-21T08:41:08.368Z,1013.65
2023-02-21T08:42:08.482Z,1013.61
2023-02-21T08:43:09.170Z,1013.60
2023-02-21T08:44:08.411Z,1013.60
2023-02-21T08:45:08.500Z,1013.57
2023-02-21T08:46:08.622Z,1013.54
2023-02-21T08:47:09.007Z,1013.53
2023-02-21T08:48:12.732Z,1013.57
2023-02-21T08:49:09.437Z,1013.58
2023-02-21T08:50:09.377Z,1013.50
2023-02-21T08:51:09.568Z,1013.53
2023-02-21T08:52:09.530Z,1013.58
2023-02-21T08:53:09.561Z,1013.58
2023-02-21T08:54:09.974Z,1013.57
2023-02-21T08:55:10.190Z,1013.58
2023-02-21T08:56:09.920Z,1013.57
2023-02-21T08:57:10.997Z,1013.64
2023-02-21T08:58:10.207Z,1013.67
2023-02-21T08:59:10.612Z,1013.65
2023-02-21T09:00:10.459Z,1013.60
2023-02-21T09:01:10.802Z,1013.60
2023-02-21T09:02:10.840Z,1013.64
2023-02-21T09:03:12.105Z,1013.69
2023-02-21T09:04:11.148Z,1013.64
2023-02-21T09:05:11.784Z,1013.71
2023-02-21T09:06:11.457Z,1013.75
2023-02-21T09:07:11.395Z,1013.70
2023-02-21T09:08:11.848Z,1013.70
2023-02-21T09:09:12.145Z,1013.69
2023-02-21T09:10:13.551Z,1013.70
2023-02-21T09:11:12.092Z,1013.72
2023-02-21T09:12:12.052Z,1013.67
2023-02-21T09:13:12.448Z,1013.69
2023-02-21T09:14:13.250Z,1013.68
2023-02-21T09:15:12.586Z,1013.70
2023-02-21T09:16:13.021Z,1013.73
2023-02-21T09:17:13.319Z,1013.74
2023-02-21T09:18:13.798Z,1013.72
2023-02-21T09:19:13.216Z,1013.74
2023-02-21T09:20:14.411Z,1013.70
2023-02-21T09:21:14.035Z,1013.71
2023-02-21T09:22:13.364Z,1013.71
2023-02-21T09:23:13.837Z,1013.70
2023-02-21T09:24:13.950Z,1013.71
2023-02-21T09:25:13.866Z,1013.73
2023-02-21T09:26:14.137Z,1013.75
2023-02-21T09:27:14.720Z,1013.76
2023-02-21T09:28:14.918Z,1013.74
2023-02-21T09:29:14.433Z,1013.71
2023-02-21T09:30:14.723Z,1013.72
2023-02-21T09:33:34.060Z,1013.76
2023-02-21T09:34:30.825Z,1013.74
2023-02-21T09:35:31.244Z,1013.78
2023-02-21T09:36:31.171Z,1013.73
2023-02-21T09:37:31.671Z,1013.80
2023-02-21T09:38:31.639Z,1013.78
2023-02-21T09:39:31.455Z,1013.74
2023-02-21T09:40:31.880Z,1013.78
2023-02-21T09:41:33.133Z,1013.77
2023-02-21T09:42:32.157Z,1013.76
2023-02-21T09:43:32.116Z,1013.74
2023-02-21T09:44:32.391Z,1013.75
2023-02-21T09:45:32.483Z,1013.74
2023-02-21T09:46:33.385Z,1013.79
2023-02-21T09:47:32.648Z,1013.77
2023-02-21T09:48:33.056Z,1013.75
2023-02-21T09:49:33.096Z,1013.82
2023-02-21T09:50:33.046Z,1013.83
2023-02-21T09:51:33.187Z,1013.80
2023-02-21T09:52:33.829Z,1013.80
2023-02-21T09:53:33.603Z,1013.80
2023-02-21T09:54:33.628Z,1013.79
2023-02-21T09:55:33.750Z,1013.81
2023-02-21T09:56:34.044Z,1013.78
2023-02-21T09:57:34.162Z,1013.84
2023-02-21T09:58:34.187Z,1013.83
2023-02-21T09:59:34.760Z,1013.85
2023-02-21T10:00:34.624Z,1013.84
2023-02-21T10:01:34.896Z,1013.80
2023-02-21T10:13:03.107Z,1013.92
2023-02-21T10:14:03.159Z,1013.84
2023-02-21T10:15:03.424Z,1013.87
2023-02-21T10:16:03.775Z,1013.85
2023-02-21T10:17:03.672Z,1013.86
2023-02-21T10:18:03.685Z,1013.82
2023-02-21T10:19:03.814Z,1013.87
2023-02-21T10:20:03.965Z,1013.84
2023-02-21T10:21:04.231Z,1013.88
2023-02-21T10:22:04.361Z,1013.88
2023-02-21T10:23:04.219Z,1013.86
2023-02-21T10:24:04.410Z,1013.85
2023-02-21T10:25:25.461Z,1013.87
2023-02-21T10:26:04.768Z,1013.87
2023-02-21T10:27:05.642Z,1013.89
2023-02-21T10:28:05.506Z,1013.88
2023-02-21T10:29:05.177Z,1013.84
2023-02-21T10:30:05.252Z,1013.91
2023-02-21T10:31:05.648Z,1013.88
2023-02-21T10:32:05.901Z,1013.90
2023-02-21T10:33:06.442Z,1013.91
2023-02-21T10:34:05.842Z,1013.90
2023-02-21T10:35:05.919Z,1013.90
2023-02-21T10:36:06.015Z,1013.94
2023-02-21T10:37:06.360Z,1013.94
2023-02-21T10:38:07.656Z,1013.95
2023-02-21T10:39:06.226Z,1013.95
2023-02-21T10:40:08.801Z,1013.90
2023-02-21T10:41:06.772Z,1013.91
2023-02-21T10:42:06.790Z,1013.87
2023-02-21T10:43:07.243Z,1013.89
2023-02-21T10:44:07.218Z,1013.88
2023-02-21T10:45:07.496Z,1013.88
2023-02-21T10:46:07.777Z,1013.94
2023-02-21T10:47:07.354Z,1013.98
2023-02-21T10:48:07.504Z,1013.93
2023-02-21T10:49:07.840Z,1013.88
2023-02-21T10:50:07.935Z,1013.89
2023-02-21T10:51:07.847Z,1013.96
2023-02-21T10:52:07.910Z,1013.91
2023-02-21T10:53:08.142Z,1013.96
2023-02-21T10:54:08.437Z,1013.89
2023-02-21T10:55:08.328Z,1013.94
2023-02-21T10:56:08.506Z,1013.95
2023-02-21T10:57:09.259Z,1013.93
2023-02-21T10:58:08.839Z,1013.89
2023-02-21T10:59:09.036Z,1013.89
2023-02-21T11:00:09.328Z,1013.89
2023-02-21T11:01:09.221Z,1013.91
2023-02-21T11:02:09.415Z,1013.92
2023-02-21T11:03:09.498Z,1013.89
2023-02-21T11:04:09.688Z,1013.94
2023-02-21T11:05:09.922Z,1013.96
2023-02-21T11:06:10.485Z,1013.96
2023-02-21T11:07:10.222Z,1014.01
2023-02-21T11:08:10.269Z,1013.93
2023-02-21T11:09:10.654Z,1013.96
2023-02-21T11:10:12.909Z,1013.96
2023-02-21T11:11:10.803Z,1013.92
2023-02-21T11:12:11.244Z,1013.92
2023-02-21T11:13:11.297Z,1013.92
2023-02-21T11:14:11.876Z,1013.91
2023-02-21T11:15:11.471Z,1013.92
2023-02-21T11:16:11.612Z,1013.90
2023-02-21T11:17:13.887Z,1013.92
2023-02-21T11:18:12.052Z,1013.94
2023-02-21T11:19:11.875Z,1013.97
2023-02-21T11:20:12.288Z,1013.92
2023-02-21T11:21:12.412Z,1013.96
2023-02-21T11:22:12.452Z,1013.91
2023-02-21T11:23:12.403Z,1013.89
2023-02-21T11:24:12.672Z,1013.88
2023-02-21T11:25:12.636Z,1013.84
2023-02-21T11:26:13.038Z,1013.91
2023-02-21T11:27:12.856Z,1013.86
2023-02-21T11:28:13.614Z,1013.86
2023-02-21T11:29:13.172Z,1013.94
2023-02-21T11:30:13.683Z,1013.93
2023-02-21T11:31:14.243Z,1013.86
2023-02-21T11:32:14.241Z,1013.85
2023-02-21T11:33:14.066Z,1013.82
2023-02-21T11:36:30.208Z,1013.80
2023-02-21T11:37:40.412Z,1013.80
2023-02-21T11:38:30.949Z,1013.77
2023-02-21T11:39:30.922Z,1013.78
2023-02-21T11:40:30.686Z,1013.82
2023-02-21T11:41:30.844Z,1013.71
2023-02-21T11:42:31.545Z,1013.79
2023-02-21T11:43:31.979Z,1013.79
2023-02-21T11:44:31.265Z,1013.80
2023-02-21T11:45:31.402Z,1013.82
2023-02-21T11:46:32.016Z,1013.78
2023-02-21T11:47:31.673Z,1013.75
2023-02-21T11:48:31.890Z,1013.74
2023-02-21T11:49:32.002Z,1013.75
2023-02-21T11:50:32.108Z,1013.70
2023-02-21T11:51:32.153Z,1013.70
2023-02-21T11:52:32.440Z,1013.68
2023-02-21T11:53:32.679Z,1013.66
2023-02-21T11:54:32.763Z,1013.72
2023-02-21T11:55:33.178Z,1013.72
2023-02-21T11:56:32.769Z,1013.71
2023-02-21T11:57:33.277Z,1013.70
2023-02-21T11:58:33.486Z,1013.67
2023-02-21T11:59:33.195Z,1013.68
2023-02-21T12:00:33.326Z,1013.66
2023-02-21T12:01:34.019Z,1013.65
2023-02-21T12:02:33.614Z,1013.65
2023-02-21T12:03:34.144Z,1013.62
2023-02-21T12:04:33.975Z,1013.63
2023-02-21T12:05:34.282Z,1013.62
2023-02-21T12:06:34.154Z,1013.62
2023-02-21T12:07:35.294Z,1013.58
2023-02-21T12:08:35.445Z,1013.62
2023-02-21T12:09:35.816Z,1013.57
2023-02-21T12:10:35.964Z,1013.53
2023-02-21T12:11:35.011Z,1013.57
2023-02-21T12:12:35.201Z,1013.58
2023-02-21T12:13:35.249Z,1013.56
2023-02-21T12:14:37.064Z,1013.57
2023-02-21T12:15:37.127Z,1013.55
2023-02-21T12:16:36.582Z,1013.57
2023-02-21T12:17:36.058Z,1013.61
2023-02-21T12:18:36.501Z,1013.57
2023-02-21T12:19:36.034Z,1013.59
2023-02-21T12:20:36.437Z,1013.60
2023-02-21T12:21:36.551Z,1013.60
2023-02-21T12:22:37.385Z,1013.62
2023-02-21T12:23:37.053Z,1013.60
2023-02-21T12:24:37.024Z,1013.61
2023-02-21T12:25:37.430Z,1013.61
2023-02-21T12:26:37.552Z,1013.63
2023-02-21T12:27:37.199Z,1013.58
2023-02-21T12:28:37.701Z,1013.61
2023-02-21T12:29:37.700Z,1013.56
2023-02-21T12:30:38.473Z,1013.60
2023-02-21T12:31:38.024Z,1013.56
2023-02-21T12:32:37.910Z,1013.57
2023-02-21T12:33:38.662Z,1013.54
2023-02-21T12:34:38.878Z,1013.52
2023-02-21T12:35:38.223Z,1013.53
2023-02-21T12:36:38.774Z,1013.56
2023-02-21T12:37:39.314Z,1013.59
2023-02-21T12:38:39.610Z,1013.54
2023-02-21T12:39:38.963Z,1013.54
2023-02-21T12:40:39.137Z,1013.53
2023-02-21T12:41:39.024Z,1013.54
2023-02-21T12:42:39.384Z,1013.53
2023-02-21T12:43:39.772Z,1013.58
2023-02-21T12:44:39.546Z,1013.53
2023-02-21T12:45:39.834Z,1013.57
2023-02-21T12:46:40.146Z,1013.53
2023-02-21T12:47:39.904Z,1013.55
2023-02-21T12:48:40.085Z,1013.51
2023-02-21T12:49:40.992Z,1013.56
2023-02-21T12:50:40.416Z,1013.52
2023-02-21T12:51:40.747Z,1013.50
2023-02-21T12:52:40.889Z,1013.52
2023-02-21T12:53:40.624Z,1013.51
2023-02-21T12:54:40.627Z,1013.51
2023-02-21T12:55:40.858Z,1013.59
2023-02-21T12:56:41.012Z,1013.55
2023-02-21T12:58:56.522Z,1013.54
2023-02-21T13:00:06.510Z,1013.49
2023-02-21T13:00:56.788Z,1013.48
2023-02-21T13:01:57.542Z,1013.46
2023-02-21T13:02:56.813Z,1013.46
2023-02-21T13:03:57.478Z,1013.44
2023-02-21T13:04:57.522Z,1013.46
2023-02-21T13:05:57.588Z,1013.46
2023-02-21T13:06:58.162Z,1013.50
2023-02-21T13:07:58.427Z,1013.44
2023-02-21T13:08:58.288Z,1013.46
2023-02-21T13:09:58.147Z,1013.40
2023-02-21T13:10:58.691Z,1013.44
2023-02-21T13:11:59.141Z,1013.45
2023-02-21T13:12:58.855Z,1013.45
2023-02-21T13:13:58.481Z,1013.43
2023-02-21T13:14:58.433Z,1013.44
2023-02-21T13:15:59.180Z,1013.44
2023-02-21T13:16:59.288Z,1013.43
2023-02-21T13:17:59.272Z,1013.45
2023-02-21T13:18:59.130Z,1013.47
2023-02-21T13:19:59.288Z,1013.42
2023-02-21T13:20:59.463Z,1013.40
2023-02-21T13:21:59.486Z,1013.38
2023-02-21T13:22:59.696Z,1013.43
2023-02-21T13:23:59.883Z,1013.41
2023-02-21T13:24:59.891Z,1013.40
2023-02-21T13:25:59.843Z,1013.38
2023-02-21T13:27:01.113Z,1013.43
2023-02-21T13:28:05.300Z,1013.39
2023-02-21T13:29:00.202Z,1013.35
2023-02-21T13:30:00.329Z,1013.35
2023-02-21T13:31:01.703Z,1013.38
2023-02-21T13:32:00.966Z,1013.34
2023-02-21T13:33:03.148Z,1013.31
2023-02-21T13:34:00.974Z,1013.33
2023-02-21T13:35:01.408Z,1013.28
2023-02-21T13:36:01.377Z,1013.32
2023-02-21T13:37:01.208Z,1013.34
2023-02-21T13:38:01.637Z,1013.31
2023-02-21T13:39:01.511Z,1013.33
2023-02-21T13:40:02.247Z,1013.24
2023-02-21T13:41:03.079Z,1013.28
2023-02-21T13:42:01.942Z,1013.31
2023-02-21T13:43:02.177Z,1013.20
2023-02-21T13:44:02.315Z,1013.22
2023-02-21T13:45:02.576Z,1013.24
2023-02-21T13:46:02.458Z,1013.27
2023-02-21T13:47:02.485Z,1013.14
2023-02-21T13:48:03.081Z,1013.15
2023-02-21T13:49:02.809Z,1013.20
2023-02-21T13:50:03.133Z,1013.22
2023-02-21T13:51:04.022Z,1013.13
2023-02-21T13:52:03.981Z,1013.11
2023-02-21T13:53:03.487Z,1013.13
2023-02-21T13:54:03.920Z,1013.13
2023-02-21T13:55:03.582Z,1013.13
2023-02-21T13:56:06.186Z,1013.13
2023-02-21T13:57:03.774Z,1013.10
2023-02-21T13:58:05.808Z,1013.09
2023-02-21T13:59:05.554Z,1013.13
2023-02-21T14:00:04.165Z,1013.10
2023-02-21T14:01:09.314Z,1013.10
2023-02-21T14:02:05.309Z,1013.05
2023-02-21T14:03:05.074Z,1013.06
2023-02-21T14:04:04.808Z,1013.07
2023-02-21T14:05:05.390Z,1013.09
2023-02-21T14:06:04.877Z,1013.06
2023-02-21T14:07:05.557Z,1013.06
2023-02-21T14:08:05.344Z,1013.07
2023-02-21T14:09:05.915Z,1013.04
2023-02-21T14:10:05.852Z,1013.00
2023-02-21T14:11:05.597Z,1013.02
2023-02-21T14:12:05.853Z,1013.02
2023-02-21T14:13:06.155Z,1013.03
2023-02-21T14:14:06.245Z,1013.05
2023-02-21T14:15:06.356Z,1013.01
2023-02-21T14:16:06.279Z,1013.02
2023-02-21T14:17:11.761Z,1013.03
2023-02-21T14:18:06.557Z,1013.02
2023-02-21T14:19:06.880Z,1013.01
2023-02-21T14:20:07.311Z,1013.00
2023-02-21T14:21:06.991Z,1013.05
2023-02-21T14:22:07.872Z,1012.98
2023-02-21T14:24:23.801Z,1013.04
2023-02-21T14:25:23.569Z,1012.98
2023-02-21T14:26:24.422Z,1013.00
2023-02-21T14:27:23.782Z,1012.95
2023-02-21T14:28:23.872Z,1012.97
2023-02-21T14:29:24.092Z,1012.97
2023-02-21T14:30:25.273Z,1012.98
2023-02-21T14:31:24.728Z,1012.96
2023-02-21T14:32:25.573Z,1012.99
2023-02-21T14:33:24.611Z,1012.97
2023-02-21T14:34:25.534Z,1012.95
2023-02-21T14:35:25.025Z,1013.00
2023-02-21T14:36:25.127Z,1012.93
2023-02-21T14:37:25.181Z,1012.94
2023-02-21T14:38:25.562Z,1012.97
2023-02-21T14:39:25.756Z,1012.96
2023-02-21T14:40:25.588Z,1012.95
2023-02-21T14:41:25.869Z,1012.93
2023-02-21T14:42:27.104Z,1012.97
2023-02-21T14:43:26.991Z,1012.97
2023-02-21T14:44:47.281Z,1012.96
2023-02-21T14:45:26.616Z,1012.99
2023-02-21T14:46:26.757Z,1012.99
2023-02-21T14:47:30.217Z,1012.98
2023-02-21T14:48:26.919Z,1012.99
2023-02-21T14:49:27.075Z,1013.02
2023-02-21T14:50:27.519Z,1012.97
2023-02-21T14:51:27.223Z,1012.98
2023-02-21T14:52:27.422Z,1012.95
2023-02-21T14:53:27.975Z,1012.99
2023-02-21T14:54:27.654Z,1012.99
2023-02-21T14:55:27.816Z,1013.01
2023-02-21T14:56:28.904Z,1013.04
2023-02-21T14:57:28.232Z,1013.03
2023-02-21T14:58:28.210Z,1012.99
2023-02-21T14:59:28.342Z,1013.00
2023-02-21T15:00:28.623Z,1013.03
2023-02-21T15:01:29.322Z,1013.01
2023-02-21T15:02:28.752Z,1013.03
2023-02-21T15:03:29.603Z,1013.00
2023-02-21T15:04:29.424Z,1013.01
2023-02-21T15:05:29.095Z,1012.98
2023-02-21T15:06:29.430Z,1013.00
2023-02-21T15:07:30.231Z,1013.03
2023-02-21T15:08:29.521Z,1013.03
2023-02-21T15:09:29.722Z,1013.01
2023-02-21T15:10:29.809Z,1013.04
2023-02-21T15:11:29.853Z,1013.04
2023-02-21T15:12:29.969Z,1013.05
2023-02-21T15:13:30.292Z,1012.96
2023-02-21T15:14:30.379Z,1013.00
2023-02-21T15:15:30.927Z,1013.03
2023-02-21T15:16:30.639Z,1013.01
2023-02-21T15:17:30.731Z,1012.99
2023-02-21T15:18:31.147Z,1012.97
2023-02-21T15:19:31.088Z,1012.96
2023-02-21T15:20:31.540Z,1013.00
2023-02-21T15:21:31.306Z,1012.99
2023-02-21T15:22:31.858Z,1013.00
2023-02-21T15:23:32.483Z,1012.97
2023-02-21T15:24:31.969Z,1012.97
2023-02-21T15:25:32.061Z,1013.00
2023-02-21T15:26:32.694Z,1013.00
2023-02-21T15:27:32.172Z,1012.98
2023-02-21T15:28:32.247Z,1012.97
2023-02-21T15:29:32.905Z,1012.94
2023-02-21T15:30:33.501Z,1012.98
2023-02-21T15:31:33.809Z,1013.03
2023-02-21T15:32:33.728Z,1013.05
2023-02-21T15:33:33.172Z,1013.03
2023-02-21T15:34:33.715Z,1013.01
2023-02-21T15:35:33.366Z,1013.00
2023-02-21T15:36:33.593Z,1013.05
2023-02-21T15:37:33.473Z,1013.06
2023-02-21T15:38:33.651Z,1013.08
2023-02-21T15:39:34.028Z,1013.07
2023-02-21T15:40:34.813Z,1013.09
2023-02-21T15:41:34.213Z,1013.08
2023-02-21T15:42:35.105Z,1013.07
2023-02-21T15:43:34.348Z,1013.01
2023-02-21T15:44:35.552Z,1013.04
2023-02-21T15:47:53.563Z,1013.07
2023-02-21T15:48:50.867Z,1013.07
2023-02-21T15:49:54.986Z,1013.04
2023-02-21T15:50:51.126Z,1013.05
2023-02-21T15:51:52.731Z,1013.01
2023-02-21T15:52:52.326Z,1013.07
2023-02-21T15:53:51.757Z,1013.01
2023-02-21T15:54:53.454Z,1013.04
2023-02-21T15:55:52.802Z,1013.06
2023-02-21T15:56:52.560Z,1013.05
2023-02-21T15:57:52.605Z,1013.03
2023-02-21T15:58:52.693Z,1013.04
2023-02-21T15:59:53.608Z,1013.06
2023-02-21T16:00:53.173Z,1013.07
2023-02-21T16:12:19.408Z,1013.07
2023-02-21T16:13:15.629Z,1013.06
2023-02-21T16:14:15.940Z,1013.11
2023-02-21T16:15:16.479Z,1013.10
2023-02-21T16:16:17.184Z,1013.08
2023-02-21T16:17:16.155Z,1013.07
2023-02-21T16:18:16.565Z,1013.10
2023-02-21T16:19:16.901Z,1013.06
2023-02-21T16:20:17.517Z,1013.06
2023-02-21T16:21:18.062Z,1013.03
2023-02-21T16:22:17.922Z,1013.03
2023-02-21T16:23:17.852Z,1013.05
2023-02-21T16:24:18.046Z,1013.08
2023-02-21T16:25:17.148Z,1013.03
2023-02-21T16:26:17.433Z,1012.96
2023-02-21T16:27:17.954Z,1013.03
2023-02-21T16:28:18.227Z,1013.00
2023-02-21T16:29:18.181Z,1013.00
2023-02-21T16:30:18.562Z,1013.02
2023-02-21T16:31:18.788Z,1012.99
2023-02-21T16:32:18.711Z,1013.00
2023-02-21T16:33:18.681Z,1013.02
2023-02-21T16:34:18.618Z,1013.02
2023-02-21T16:35:18.702Z,1013.04
2023-02-21T16:36:19.655Z,1013.03
2023-02-21T16:37:18.948Z,1013.04
2023-02-21T16:38:19.954Z,1013.02
2023-02-21T16:39:19.254Z,1013.06
2023-02-21T16:40:19.351Z,1013.07
2023-02-21T16:41:19.627Z,1013.13